sensor_id;sensor_type;location;lat;lon;timestamp;P1;durP1;ratioP1;P2;durP2;ratioP2
17091;SDS011;8661;45.700;4.880;2023-12-14T00:02:05;2.73;;;1.73;;
17091;SDS011;8661;45.700;4.880;2023-12-14T00:04:32;1.97;;;1.30;;
17091;SDS011;8661;45.700;4.880;2023-12-14T00:06:59;3.30;;;1.70;;
17091;SDS011;8661;45.700;4.880;2023-12-14T00:09:26;1.97;;;1.47;;
17091;SDS011;8661;45.700;4.880;2023-12-14T00:11:53;3.10;;;1.80;;
17091;SDS011;8661;45.700;4.880;2023-12-14T00:14:20;1.33;;;1.23;;
17091;SDS011;8661;45.700;4.880;2023-12-14T00:16:47;2.47;;;1.60;;
17091;SDS011;8661;45.700;4.880;2023-12-14T00:19:15;2.13;;;1.63;;
17091;SDS011;8661;45.700;4.880;2023-12-14T00:21:42;2.67;;;1.93;;
17091;SDS011;8661;45.700;4.880;2023-12-14T00:24:09;3.17;;;1.70;;
17091;SDS011;8661;45.700;4.880;2023-12-14T00:26:36;2.83;;;1.50;;
17091;SDS011;8661;45.700;4.880;2023-12-14T00:29:03;1.80;;;1.43;;
17091;SDS011;8661;45.700;4.880;2023-12-14T00:31:30;3.07;;;1.50;;
17091;SDS011;8661;45.700;4.880;2023-12-14T00:33:57;3.83;;;1.50;;
17091;SDS011;8661;45.700;4.880;2023-12-14T00:36:25;4.30;;;1.50;;
17091;SDS011;8661;45.700;4.880;2023-12-14T00:38:53;2.10;;;1.50;;
17091;SDS011;8661;45.700;4.880;2023-12-14T00:41:22;3.43;;;1.60;;
17091;SDS011;8661;45.700;4.880;2023-12-14T00:43:49;3.23;;;1.50;;
17091;SDS011;8661;45.700;4.880;2023-12-14T00:46:16;2.53;;;1.60;;
17091;SDS011;8661;45.700;4.880;2023-12-14T00:48:42;2.40;;;1.50;;
17091;SDS011;8661;45.700;4.880;2023-12-14T00:51:09;2.77;;;1.77;;
17091;SDS011;8661;45.700;4.880;2023-12-14T00:53:38;2.30;;;1.60;;
17091;SDS011;8661;45.700;4.880;2023-12-14T00:56:07;2.80;;;1.63;;
17091;SDS011;8661;45.700;4.880;2023-12-14T00:58:34;4.90;;;1.73;;
17091;SDS011;8661;45.700;4.880;2023-12-14T01:01:01;1.80;;;1.57;;
17091;SDS011;8661;45.700;4.880;2023-12-14T01:03:28;1.83;;;1.70;;
17091;SDS011;8661;45.700;4.880;2023-12-14T01:05:55;4.00;;;2.00;;
17091;SDS011;8661;45.700;4.880;2023-12-14T01:08:22;4.23;;;1.97;;
17091;SDS011;8661;45.700;4.880;2023-12-14T01:10:50;3.63;;;1.90;;
17091;SDS011;8661;45.700;4.880;2023-12-14T01:13:17;2.27;;;1.73;;
17091;SDS011;8661;45.700;4.880;2023-12-14T01:15:44;2.40;;;1.93;;
17091;SDS011;8661;45.700;4.880;2023-12-14T01:18:13;2.67;;;1.93;;
17091;SDS011;8661;45.700;4.880;2023-12-14T01:20:40;3.20;;;1.80;;
17091;SDS011;8661;45.700;4.880;2023-12-14T01:23:08;2.20;;;2.00;;
17091;SDS011;8661;45.700;4.880;2023-12-14T01:25:35;3.50;;;2.10;;
17091;SDS011;8661;45.700;4.880;2023-12-14T01:28:03;2.00;;;1.80;;
17091;SDS011;8661;45.700;4.880;2023-12-14T01:30:30;4.23;;;2.10;;
17091;SDS011;8661;45.700;4.880;2023-12-14T01:32:57;2.60;;;1.60;;
17091;SDS011;8661;45.700;4.880;2023-12-14T01:35:24;1.90;;;1.60;;
17091;SDS011;8661;45.700;4.880;2023-12-14T01:37:51;4.53;;;1.80;;
17091;SDS011;8661;45.700;4.880;2023-12-14T01:40:18;1.80;;;1.30;;
17091;SDS011;8661;45.700;4.880;2023-12-14T01:42:46;2.57;;;1.50;;
17091;SDS011;8661;45.700;4.880;2023-12-14T01:45:14;1.70;;;1.60;;
17091;SDS011;8661;45.700;4.880;2023-12-14T01:47:41;4.93;;;1.50;;
17091;SDS011;8661;45.700;4.880;2023-12-14T01:50:10;2.07;;;1.60;;
17091;SDS011;8661;45.700;4.880;2023-12-14T01:52:36;4.47;;;2.67;;
17091;SDS011;8661;45.700;4.880;2023-12-14T01:55:04;2.37;;;1.50;;
17091;SDS011;8661;45.700;4.880;2023-12-14T01:57:31;1.30;;;1.20;;
17091;SDS011;8661;45.700;4.880;2023-12-14T01:59:58;1.50;;;1.40;;
17091;SDS011;8661;45.700;4.880;2023-12-14T02:02:26;2.20;;;1.47;;
17091;SDS011;8661;45.700;4.880;2023-12-14T02:04:54;8.20;;;2.23;;
17091;SDS011;8661;45.700;4.880;2023-12-14T02:07:20;2.87;;;1.70;;
17091;SDS011;8661;45.700;4.880;2023-12-14T02:09:47;2.87;;;1.63;;
17091;SDS011;8661;45.700;4.880;2023-12-14T02:12:15;2.73;;;1.53;;
17091;SDS011;8661;45.700;4.880;2023-12-14T02:14:42;1.70;;;1.60;;
17091;SDS011;8661;45.700;4.880;2023-12-14T02:17:09;2.27;;;1.50;;
17091;SDS011;8661;45.700;4.880;2023-12-14T02:19:38;2.60;;;1.73;;
17091;SDS011;8661;45.700;4.880;2023-12-14T02:22:05;1.60;;;1.37;;
17091;SDS011;8661;45.700;4.880;2023-12-14T02:24:33;2.53;;;1.20;;
17091;SDS011;8661;45.700;4.880;2023-12-14T02:27:00;1.57;;;1.23;;
17091;SDS011;8661;45.700;4.880;2023-12-14T02:29:27;2.13;;;1.30;;
17091;SDS011;8661;45.700;4.880;2023-12-14T02:31:54;1.30;;;1.00;;
17091;SDS011;8661;45.700;4.880;2023-12-14T02:34:21;1.73;;;1.00;;
17091;SDS011;8661;45.700;4.880;2023-12-14T02:36:50;1.00;;;1.00;;
17091;SDS011;8661;45.700;4.880;2023-12-14T02:39:16;1.83;;;0.80;;
17091;SDS011;8661;45.700;4.880;2023-12-14T02:41:45;1.37;;;1.23;;
17091;SDS011;8661;45.700;4.880;2023-12-14T02:44:12;0.70;;;0.70;;
17091;SDS011;8661;45.700;4.880;2023-12-14T02:46:38;1.40;;;0.90;;
17091;SDS011;8661;45.700;4.880;2023-12-14T02:49:05;1.30;;;0.90;;
17091;SDS011;8661;45.700;4.880;2023-12-14T02:51:32;2.23;;;0.97;;
17091;SDS011;8661;45.700;4.880;2023-12-14T02:54:01;1.80;;;1.10;;
17091;SDS011;8661;45.700;4.880;2023-12-14T02:56:28;1.10;;;0.90;;
17091;SDS011;8661;45.700;4.880;2023-12-14T02:58:56;1.17;;;1.00;;
17091;SDS011;8661;45.700;4.880;2023-12-14T03:01:23;1.93;;;1.10;;
17091;SDS011;8661;45.700;4.880;2023-12-14T03:03:50;1.30;;;1.00;;
17091;SDS011;8661;45.700;4.880;2023-12-14T03:06:17;1.23;;;0.93;;
17091;SDS011;8661;45.700;4.880;2023-12-14T03:08:44;1.10;;;0.90;;
17091;SDS011;8661;45.700;4.880;2023-12-14T03:11:20;1.53;;;0.77;;
17091;SDS011;8661;45.700;4.880;2023-12-14T03:13:47;2.10;;;1.03;;
17091;SDS011;8661;45.700;4.880;2023-12-14T03:16:15;1.00;;;0.90;;
17091;SDS011;8661;45.700;4.880;2023-12-14T03:18:42;1.07;;;1.00;;
17091;SDS011;8661;45.700;4.880;2023-12-14T03:21:09;1.90;;;1.03;;
17091;SDS011;8661;45.700;4.880;2023-12-14T03:23:37;1.37;;;0.90;;
17091;SDS011;8661;45.700;4.880;2023-12-14T03:26:03;0.80;;;0.80;;
17091;SDS011;8661;45.700;4.880;2023-12-14T03:28:30;1.57;;;0.93;;
17091;SDS011;8661;45.700;4.880;2023-12-14T03:30:57;1.97;;;0.80;;
17091;SDS011;8661;45.700;4.880;2023-12-14T03:33:26;2.00;;;0.70;;
17091;SDS011;8661;45.700;4.880;2023-12-14T03:35:52;0.90;;;0.90;;
17091;SDS011;8661;45.700;4.880;2023-12-14T03:38:19;0.90;;;0.90;;
17091;SDS011;8661;45.700;4.880;2023-12-14T03:40:46;1.63;;;0.93;;
17091;SDS011;8661;45.700;4.880;2023-12-14T03:43:13;2.50;;;0.90;;
17091;SDS011;8661;45.700;4.880;2023-12-14T03:45:40;1.10;;;0.93;;
17091;SDS011;8661;45.700;4.880;2023-12-14T03:48:07;0.80;;;0.80;;
17091;SDS011;8661;45.700;4.880;2023-12-14T03:50:35;1.20;;;1.00;;
17091;SDS011;8661;45.700;4.880;2023-12-14T03:53:02;0.90;;;0.90;;
17091;SDS011;8661;45.700;4.880;2023-12-14T03:55:29;1.63;;;1.30;;
17091;SDS011;8661;45.700;4.880;2023-12-14T03:57:56;1.17;;;0.90;;
17091;SDS011;8661;45.700;4.880;2023-12-14T04:00:23;1.00;;;0.93;;
17091;SDS011;8661;45.700;4.880;2023-12-14T04:02:50;1.33;;;1.20;;
17091;SDS011;8661;45.700;4.880;2023-12-14T04:05:17;1.13;;;1.03;;
17091;SDS011;8661;45.700;4.880;2023-12-14T04:07:45;1.30;;;0.90;;
17091;SDS011;8661;45.700;4.880;2023-12-14T04:10:12;1.27;;;0.90;;
17091;SDS011;8661;45.700;4.880;2023-12-14T04:12:39;1.17;;;1.03;;
17091;SDS011;8661;45.700;4.880;2023-12-14T04:15:07;1.93;;;1.30;;
17091;SDS011;8661;45.700;4.880;2023-12-14T04:17:35;1.27;;;1.17;;
17091;SDS011;8661;45.700;4.880;2023-12-14T04:20:03;1.47;;;1.00;;
17091;SDS011;8661;45.700;4.880;2023-12-14T04:22:31;1.13;;;1.00;;
17091;SDS011;8661;45.700;4.880;2023-12-14T04:24:59;1.53;;;1.20;;
17091;SDS011;8661;45.700;4.880;2023-12-14T04:27:26;1.83;;;1.00;;
17091;SDS011;8661;45.700;4.880;2023-12-14T04:29:55;1.43;;;0.90;;
17091;SDS011;8661;45.700;4.880;2023-12-14T04:32:21;1.00;;;0.90;;
17091;SDS011;8661;45.700;4.880;2023-12-14T04:34:48;1.53;;;1.00;;
17091;SDS011;8661;45.700;4.880;2023-12-14T04:37:15;0.83;;;0.83;;
17091;SDS011;8661;45.700;4.880;2023-12-14T04:39:42;2.10;;;0.90;;
17091;SDS011;8661;45.700;4.880;2023-12-14T04:42:10;1.20;;;0.93;;
17091;SDS011;8661;45.700;4.880;2023-12-14T04:44:37;1.57;;;0.70;;
17091;SDS011;8661;45.700;4.880;2023-12-14T04:47:04;0.80;;;0.70;;
17091;SDS011;8661;45.700;4.880;2023-12-14T04:49:31;1.53;;;0.80;;
17091;SDS011;8661;45.700;4.880;2023-12-14T04:51:58;0.70;;;0.70;;
17091;SDS011;8661;45.700;4.880;2023-12-14T04:54:25;1.00;;;0.80;;
17091;SDS011;8661;45.700;4.880;2023-12-14T04:56:52;0.60;;;0.60;;
17091;SDS011;8661;45.700;4.880;2023-12-14T04:59:20;0.73;;;0.73;;
17091;SDS011;8661;45.700;4.880;2023-12-14T05:01:47;0.80;;;0.80;;
17091;SDS011;8661;45.700;4.880;2023-12-14T05:04:14;0.50;;;0.50;;
17091;SDS011;8661;45.700;4.880;2023-12-14T05:06:41;0.83;;;0.60;;
17091;SDS011;8661;45.700;4.880;2023-12-14T05:09:08;2.00;;;0.57;;
17091;SDS011;8661;45.700;4.880;2023-12-14T05:11:36;0.50;;;0.50;;
17091;SDS011;8661;45.700;4.880;2023-12-14T05:14:05;0.63;;;0.50;;
17091;SDS011;8661;45.700;4.880;2023-12-14T05:16:33;0.63;;;0.63;;
17091;SDS011;8661;45.700;4.880;2023-12-14T05:19:00;0.50;;;0.50;;
17091;SDS011;8661;45.700;4.880;2023-12-14T05:21:27;1.50;;;0.70;;
17091;SDS011;8661;45.700;4.880;2023-12-14T05:23:54;2.00;;;0.60;;
17091;SDS011;8661;45.700;4.880;2023-12-14T05:26:21;0.60;;;0.60;;
17091;SDS011;8661;45.700;4.880;2023-12-14T05:28:48;1.17;;;0.60;;
17091;SDS011;8661;45.700;4.880;2023-12-14T05:31:15;0.60;;;0.60;;
17091;SDS011;8661;45.700;4.880;2023-12-14T05:33:43;0.70;;;0.70;;
17091;SDS011;8661;45.700;4.880;2023-12-14T05:36:10;0.60;;;0.60;;
17091;SDS011;8661;45.700;4.880;2023-12-14T05:38:37;2.20;;;0.60;;
17091;SDS011;8661;45.700;4.880;2023-12-14T05:41:04;0.60;;;0.60;;
17091;SDS011;8661;45.700;4.880;2023-12-14T05:43:31;0.50;;;0.50;;
17091;SDS011;8661;45.700;4.880;2023-12-14T05:45:58;0.60;;;0.60;;
17091;SDS011;8661;45.700;4.880;2023-12-14T05:48:25;0.70;;;0.60;;
17091;SDS011;8661;45.700;4.880;2023-12-14T05:50:54;0.60;;;0.60;;
17091;SDS011;8661;45.700;4.880;2023-12-14T05:53:22;1.27;;;0.63;;
17091;SDS011;8661;45.700;4.880;2023-12-14T05:55:49;0.60;;;0.60;;
17091;SDS011;8661;45.700;4.880;2023-12-14T05:58:16;0.60;;;0.60;;
17091;SDS011;8661;45.700;4.880;2023-12-14T06:00:43;0.60;;;0.60;;
17091;SDS011;8661;45.700;4.880;2023-12-14T06:03:10;0.77;;;0.77;;
17091;SDS011;8661;45.700;4.880;2023-12-14T06:05:37;1.20;;;0.90;;
17091;SDS011;8661;45.700;4.880;2023-12-14T06:08:05;0.70;;;0.70;;
17091;SDS011;8661;45.700;4.880;2023-12-14T06:10:32;1.50;;;0.90;;
17091;SDS011;8661;45.700;4.880;2023-12-14T06:12:59;0.83;;;0.83;;
17091;SDS011;8661;45.700;4.880;2023-12-14T06:15:26;1.33;;;1.00;;
17091;SDS011;8661;45.700;4.880;2023-12-14T06:17:53;1.10;;;1.00;;
17091;SDS011;8661;45.700;4.880;2023-12-14T06:20:20;1.20;;;1.10;;
17091;SDS011;8661;45.700;4.880;2023-12-14T06:22:48;2.20;;;1.40;;
17091;SDS011;8661;45.700;4.880;2023-12-14T06:25:16;3.13;;;1.63;;
17091;SDS011;8661;45.700;4.880;2023-12-14T06:27:43;2.30;;;1.20;;
17091;SDS011;8661;45.700;4.880;2023-12-14T06:30:10;1.57;;;1.40;;
17091;SDS011;8661;45.700;4.880;2023-12-14T06:32:38;1.87;;;1.40;;
17091;SDS011;8661;45.700;4.880;2023-12-14T06:35:05;1.70;;;1.27;;
17091;SDS011;8661;45.700;4.880;2023-12-14T06:37:32;3.37;;;1.93;;
17091;SDS011;8661;45.700;4.880;2023-12-14T06:39:59;2.97;;;1.50;;
17091;SDS011;8661;45.700;4.880;2023-12-14T06:42:28;1.63;;;1.53;;
17091;SDS011;8661;45.700;4.880;2023-12-14T06:44:55;2.03;;;1.53;;
17091;SDS011;8661;45.700;4.880;2023-12-14T06:47:22;2.83;;;1.80;;
17091;SDS011;8661;45.700;4.880;2023-12-14T06:49:49;4.27;;;1.80;;
17091;SDS011;8661;45.700;4.880;2023-12-14T06:52:16;3.53;;;1.80;;
17091;SDS011;8661;45.700;4.880;2023-12-14T06:54:43;2.57;;;1.67;;
17091;SDS011;8661;45.700;4.880;2023-12-14T06:57:10;2.57;;;1.70;;
17091;SDS011;8661;45.700;4.880;2023-12-14T06:59:39;1.53;;;1.43;;
17091;SDS011;8661;45.700;4.880;2023-12-14T07:02:06;2.03;;;1.60;;
17091;SDS011;8661;45.700;4.880;2023-12-14T07:04:33;3.10;;;1.73;;
17091;SDS011;8661;45.700;4.880;2023-12-14T07:07:00;3.27;;;1.87;;
17091;SDS011;8661;45.700;4.880;2023-12-14T07:09:28;2.50;;;1.70;;
17091;SDS011;8661;45.700;4.880;2023-12-14T07:11:54;1.80;;;1.63;;
17091;SDS011;8661;45.700;4.880;2023-12-14T07:14:21;1.97;;;1.60;;
17091;SDS011;8661;45.700;4.880;2023-12-14T07:16:50;4.80;;;2.37;;
17091;SDS011;8661;45.700;4.880;2023-12-14T07:19:16;2.10;;;1.77;;
17091;SDS011;8661;45.700;4.880;2023-12-14T07:21:43;2.57;;;2.07;;
17091;SDS011;8661;45.700;4.880;2023-12-14T07:24:10;3.77;;;2.13;;
17091;SDS011;8661;45.700;4.880;2023-12-14T07:26:37;4.33;;;2.70;;
17091;SDS011;8661;45.700;4.880;2023-12-14T07:29:04;3.17;;;2.40;;
17091;SDS011;8661;45.700;4.880;2023-12-14T07:31:31;3.60;;;2.30;;
17091;SDS011;8661;45.700;4.880;2023-12-14T07:34:00;4.07;;;2.50;;
17091;SDS011;8661;45.700;4.880;2023-12-14T07:36:27;3.83;;;2.50;;
17091;SDS011;8661;45.700;4.880;2023-12-14T07:38:54;4.43;;;2.10;;
17091;SDS011;8661;45.700;4.880;2023-12-14T07:41:25;3.30;;;1.97;;
17091;SDS011;8661;45.700;4.880;2023-12-14T07:43:54;3.33;;;1.90;;
17091;SDS011;8661;45.700;4.880;2023-12-14T07:46:21;2.90;;;2.30;;
17091;SDS011;8661;45.700;4.880;2023-12-14T07:48:48;2.10;;;1.80;;
17091;SDS011;8661;45.700;4.880;2023-12-14T07:51:17;4.07;;;2.13;;
17091;SDS011;8661;45.700;4.880;2023-12-14T07:53:43;2.87;;;1.80;;
17091;SDS011;8661;45.700;4.880;2023-12-14T07:56:11;1.97;;;1.77;;
17091;SDS011;8661;45.700;4.880;2023-12-14T07:58:38;2.33;;;2.00;;
17091;SDS011;8661;45.700;4.880;2023-12-14T08:01:06;3.30;;;2.73;;
17091;SDS011;8661;45.700;4.880;2023-12-14T08:03:33;7.80;;;4.77;;
17091;SDS011;8661;45.700;4.880;2023-12-14T08:06:00;4.70;;;2.97;;
17091;SDS011;8661;45.700;4.880;2023-12-14T08:08:28;5.43;;;2.80;;
17091;SDS011;8661;45.700;4.880;2023-12-14T08:10:55;5.03;;;3.50;;
17091;SDS011;8661;45.700;4.880;2023-12-14T08:13:22;7.53;;;4.00;;
17091;SDS011;8661;45.700;4.880;2023-12-14T08:15:49;6.90;;;3.93;;
17091;SDS011;8661;45.700;4.880;2023-12-14T08:18:17;5.10;;;4.57;;
17091;SDS011;8661;45.700;4.880;2023-12-14T08:20:44;4.27;;;3.87;;
17091;SDS011;8661;45.700;4.880;2023-12-14T08:23:10;8.20;;;4.20;;
17091;SDS011;8661;45.700;4.880;2023-12-14T08:25:39;8.30;;;4.93;;
17091;SDS011;8661;45.700;4.880;2023-12-14T08:28:06;7.40;;;3.30;;
17091;SDS011;8661;45.700;4.880;2023-12-14T08:30:33;6.30;;;3.80;;
17091;SDS011;8661;45.700;4.880;2023-12-14T08:33:00;5.83;;;3.17;;
17091;SDS011;8661;45.700;4.880;2023-12-14T08:35:28;4.40;;;3.10;;
17091;SDS011;8661;45.700;4.880;2023-12-14T08:37:55;4.93;;;2.90;;
17091;SDS011;8661;45.700;4.880;2023-12-14T08:40:21;5.60;;;2.73;;
17091;SDS011;8661;45.700;4.880;2023-12-14T08:42:50;3.97;;;2.77;;
17091;SDS011;8661;45.700;4.880;2023-12-14T08:45:17;5.43;;;3.40;;
17091;SDS011;8661;45.700;4.880;2023-12-14T08:47:43;4.30;;;3.10;;
17091;SDS011;8661;45.700;4.880;2023-12-14T08:50:10;4.10;;;2.90;;
17091;SDS011;8661;45.700;4.880;2023-12-14T08:52:37;5.00;;;3.10;;
17091;SDS011;8661;45.700;4.880;2023-12-14T08:55:04;3.50;;;2.90;;
17091;SDS011;8661;45.700;4.880;2023-12-14T08:57:32;3.97;;;3.00;;
17091;SDS011;8661;45.700;4.880;2023-12-14T09:00:00;4.63;;;2.80;;
17091;SDS011;8661;45.700;4.880;2023-12-14T09:02:29;3.77;;;2.80;;
17091;SDS011;8661;45.700;4.880;2023-12-14T09:04:56;4.73;;;3.60;;
17091;SDS011;8661;45.700;4.880;2023-12-14T09:07:22;5.37;;;3.30;;
17091;SDS011;8661;45.700;4.880;2023-12-14T09:09:49;6.97;;;3.80;;
17091;SDS011;8661;45.700;4.880;2023-12-14T09:12:16;5.60;;;3.90;;
17091;SDS011;8661;45.700;4.880;2023-12-14T09:14:44;6.23;;;3.80;;
17091;SDS011;8661;45.700;4.880;2023-12-14T09:17:12;5.63;;;3.80;;
17091;SDS011;8661;45.700;4.880;2023-12-14T09:19:39;4.30;;;3.50;;
17091;SDS011;8661;45.700;4.880;2023-12-14T09:22:06;5.00;;;3.57;;
17091;SDS011;8661;45.700;4.880;2023-12-14T09:24:33;4.13;;;3.53;;
17091;SDS011;8661;45.700;4.880;2023-12-14T09:27:00;7.20;;;3.87;;
17091;SDS011;8661;45.700;4.880;2023-12-14T09:29:27;4.90;;;3.73;;
17091;SDS011;8661;45.700;4.880;2023-12-14T09:31:54;9.07;;;3.63;;
17091;SDS011;8661;45.700;4.880;2023-12-14T09:34:23;4.80;;;3.60;;
17091;SDS011;8661;45.700;4.880;2023-12-14T09:36:50;3.90;;;3.40;;
17091;SDS011;8661;45.700;4.880;2023-12-14T09:39:17;7.70;;;3.70;;
17091;SDS011;8661;45.700;4.880;2023-12-14T09:41:46;7.30;;;3.53;;
17091;SDS011;8661;45.700;4.880;2023-12-14T09:44:13;4.43;;;2.90;;
17091;SDS011;8661;45.700;4.880;2023-12-14T09:46:41;4.20;;;3.23;;
17091;SDS011;8661;45.700;4.880;2023-12-14T09:49:14;4.20;;;3.10;;
17091;SDS011;8661;45.700;4.880;2023-12-14T09:51:43;5.67;;;3.70;;
17091;SDS011;8661;45.700;4.880;2023-12-14T09:54:10;8.30;;;3.90;;
17091;SDS011;8661;45.700;4.880;2023-12-14T09:56:45;3.73;;;3.23;;
17091;SDS011;8661;45.700;4.880;2023-12-14T09:59:13;5.80;;;3.90;;
17091;SDS011;8661;45.700;4.880;2023-12-14T10:01:40;9.97;;;6.00;;
17091;SDS011;8661;45.700;4.880;2023-12-14T10:04:09;7.03;;;4.87;;
17091;SDS011;8661;45.700;4.880;2023-12-14T10:06:37;12.40;;;4.23;;
17091;SDS011;8661;45.700;4.880;2023-12-14T10:09:06;6.83;;;3.40;;
17091;SDS011;8661;45.700;4.880;2023-12-14T10:11:35;5.73;;;3.60;;
17091;SDS011;8661;45.700;4.880;2023-12-14T10:14:02;5.10;;;3.47;;
17091;SDS011;8661;45.700;4.880;2023-12-14T10:16:29;5.97;;;3.47;;
17091;SDS011;8661;45.700;4.880;2023-12-14T10:18:57;6.97;;;3.70;;
17091;SDS011;8661;45.700;4.880;2023-12-14T10:21:26;12.73;;;3.83;;
17091;SDS011;8661;45.700;4.880;2023-12-14T10:23:54;3.93;;;3.40;;
17091;SDS011;8661;45.700;4.880;2023-12-14T10:26:23;4.60;;;3.30;;
17091;SDS011;8661;45.700;4.880;2023-12-14T10:28:51;5.27;;;2.83;;
17091;SDS011;8661;45.700;4.880;2023-12-14T10:31:18;6.10;;;3.13;;
17091;SDS011;8661;45.700;4.880;2023-12-14T10:33:46;0.47;;;0.47;;
17091;SDS011;8661;45.700;4.880;2023-12-14T10:36:14;0.50;;;0.50;;
17091;SDS011;8661;45.700;4.880;2023-12-14T10:38:44;0.30;;;0.30;;
17091;SDS011;8661;45.700;4.880;2023-12-14T10:41:14;0.30;;;0.30;;
17091;SDS011;8661;45.700;4.880;2023-12-14T10:43:44;0.30;;;0.30;;
17091;SDS011;8661;45.700;4.880;2023-12-14T10:46:14;0.30;;;0.30;;
17091;SDS011;8661;45.700;4.880;2023-12-14T10:48:41;0.30;;;0.30;;
17091;SDS011;8661;45.700;4.880;2023-12-14T10:51:11;0.30;;;0.30;;
17091;SDS011;8661;45.700;4.880;2023-12-14T10:53:38;0.30;;;0.30;;
17091;SDS011;8661;45.700;4.880;2023-12-14T10:56:09;0.43;;;0.43;;
17091;SDS011;8661;45.700;4.880;2023-12-14T10:58:48;0.30;;;0.30;;
17091;SDS011;8661;45.700;4.880;2023-12-14T11:01:18;0.30;;;0.30;;
17091;SDS011;8661;45.700;4.880;2023-12-14T11:03:47;0.30;;;0.30;;
17091;SDS011;8661;45.700;4.880;2023-12-14T11:06:28;0.30;;;0.30;;
17091;SDS011;8661;45.700;4.880;2023-12-14T11:08:59;0.30;;;0.30;;
17091;SDS011;8661;45.700;4.880;2023-12-14T11:11:31;0.30;;;0.30;;
17091;SDS011;8661;45.700;4.880;2023-12-14T11:14:08;0.30;;;0.30;;
17091;SDS011;8661;45.700;4.880;2023-12-14T11:16:37;0.20;;;0.20;;
17091;SDS011;8661;45.700;4.880;2023-12-14T11:19:25;0.20;;;0.20;;
17091;SDS011;8661;45.700;4.880;2023-12-14T11:22:14;0.23;;;0.23;;
17091;SDS011;8661;45.700;4.880;2023-12-14T11:24:53;0.30;;;0.30;;
17091;SDS011;8661;45.700;4.880;2023-12-14T11:27:30;0.30;;;0.30;;
17091;SDS011;8661;45.700;4.880;2023-12-14T11:29:58;0.30;;;0.30;;
17091;SDS011;8661;45.700;4.880;2023-12-14T11:32:26;0.30;;;0.30;;
17091;SDS011;8661;45.700;4.880;2023-12-14T11:34:54;0.30;;;0.30;;
17091;SDS011;8661;45.700;4.880;2023-12-14T11:37:22;0.40;;;0.40;;
17091;SDS011;8661;45.700;4.880;2023-12-14T11:39:49;0.30;;;0.30;;
17091;SDS011;8661;45.700;4.880;2023-12-14T11:42:18;0.30;;;0.30;;
17091;SDS011;8661;45.700;4.880;2023-12-14T11:44:45;0.30;;;0.30;;
17091;SDS011;8661;45.700;4.880;2023-12-14T11:47:14;0.30;;;0.30;;
17091;SDS011;8661;45.700;4.880;2023-12-14T11:49:41;0.30;;;0.30;;
17091;SDS011;8661;45.700;4.880;2023-12-14T11:52:08;0.20;;;0.20;;
17091;SDS011;8661;45.700;4.880;2023-12-14T11:54:37;0.20;;;0.20;;
17091;SDS011;8661;45.700;4.880;2023-12-14T11:57:03;0.30;;;0.30;;
17091;SDS011;8661;45.700;4.880;2023-12-14T11:59:34;0.30;;;0.30;;
17091;SDS011;8661;45.700;4.880;2023-12-14T12:02:03;0.30;;;0.30;;
17091;SDS011;8661;45.700;4.880;2023-12-14T12:04:31;0.20;;;0.20;;
17091;SDS011;8661;45.700;4.880;2023-12-14T12:06:59;0.20;;;0.20;;
17091;SDS011;8661;45.700;4.880;2023-12-14T12:09:34;0.20;;;0.20;;
17091;SDS011;8661;45.700;4.880;2023-12-14T12:12:02;0.30;;;0.30;;
17091;SDS011;8661;45.700;4.880;2023-12-14T12:14:32;0.23;;;0.23;;
17091;SDS011;8661;45.700;4.880;2023-12-14T12:17:00;0.30;;;0.30;;
17091;SDS011;8661;45.700;4.880;2023-12-14T12:19:28;0.20;;;0.20;;
17091;SDS011;8661;45.700;4.880;2023-12-14T12:21:56;0.20;;;0.20;;
17091;SDS011;8661;45.700;4.880;2023-12-14T12:24:23;0.20;;;0.20;;
17091;SDS011;8661;45.700;4.880;2023-12-14T12:26:50;0.20;;;0.20;;
17091;SDS011;8661;45.700;4.880;2023-12-14T12:29:17;0.20;;;0.20;;
17091;SDS011;8661;45.700;4.880;2023-12-14T12:31:44;0.20;;;0.20;;
17091;SDS011;8661;45.700;4.880;2023-12-14T12:34:11;0.30;;;0.30;;
17091;SDS011;8661;45.700;4.880;2023-12-14T12:36:38;0.30;;;0.30;;
17091;SDS011;8661;45.700;4.880;2023-12-14T12:39:06;0.20;;;0.20;;
17091;SDS011;8661;45.700;4.880;2023-12-14T12:41:33;0.20;;;0.20;;
17091;SDS011;8661;45.700;4.880;2023-12-14T12:44:02;0.30;;;0.30;;
17091;SDS011;8661;45.700;4.880;2023-12-14T12:46:31;0.20;;;0.20;;
17091;SDS011;8661;45.700;4.880;2023-12-14T12:48:59;0.20;;;0.20;;
17091;SDS011;8661;45.700;4.880;2023-12-14T12:51:26;0.20;;;0.20;;
17091;SDS011;8661;45.700;4.880;2023-12-14T12:53:54;0.20;;;0.20;;
17091;SDS011;8661;45.700;4.880;2023-12-14T12:56:23;0.30;;;0.30;;
17091;SDS011;8661;45.700;4.880;2023-12-14T12:58:51;0.20;;;0.20;;
17091;SDS011;8661;45.700;4.880;2023-12-14T13:01:19;0.20;;;0.20;;
17091;SDS011;8661;45.700;4.880;2023-12-14T13:03:47;0.20;;;0.20;;
17091;SDS011;8661;45.700;4.880;2023-12-14T13:06:17;0.20;;;0.20;;
17091;SDS011;8661;45.700;4.880;2023-12-14T13:08:44;0.20;;;0.20;;
17091;SDS011;8661;45.700;4.880;2023-12-14T13:11:11;0.20;;;0.20;;
17091;SDS011;8661;45.700;4.880;2023-12-14T13:13:40;0.20;;;0.20;;
17091;SDS011;8661;45.700;4.880;2023-12-14T13:16:08;0.20;;;0.20;;
17091;SDS011;8661;45.700;4.880;2023-12-14T13:18:35;0.20;;;0.20;;
17091;SDS011;8661;45.700;4.880;2023-12-14T13:21:03;0.20;;;0.20;;
17091;SDS011;8661;45.700;4.880;2023-12-14T13:23:30;0.20;;;0.20;;
17091;SDS011;8661;45.700;4.880;2023-12-14T13:25:58;0.20;;;0.20;;
17091;SDS011;8661;45.700;4.880;2023-12-14T13:28:24;0.33;;;0.33;;
17091;SDS011;8661;45.700;4.880;2023-12-14T13:30:53;0.20;;;0.20;;
17091;SDS011;8661;45.700;4.880;2023-12-14T13:33:20;0.17;;;0.17;;
17091;SDS011;8661;45.700;4.880;2023-12-14T13:35:47;0.20;;;0.20;;
17091;SDS011;8661;45.700;4.880;2023-12-14T13:38:14;0.20;;;0.20;;
17091;SDS011;8661;45.700;4.880;2023-12-14T13:40:41;0.30;;;0.30;;
17091;SDS011;8661;45.700;4.880;2023-12-14T13:43:08;0.20;;;0.20;;
17091;SDS011;8661;45.700;4.880;2023-12-14T13:48:05;0.20;;;0.20;;
17091;SDS011;8661;45.700;4.880;2023-12-14T13:50:32;0.20;;;0.20;;
17091;SDS011;8661;45.700;4.880;2023-12-14T13:52:59;0.20;;;0.20;;
17091;SDS011;8661;45.700;4.880;2023-12-14T13:55:27;0.20;;;0.20;;
17091;SDS011;8661;45.700;4.880;2023-12-14T13:57:54;0.30;;;0.30;;
17091;SDS011;8661;45.700;4.880;2023-12-14T14:00:23;0.30;;;0.30;;
17091;SDS011;8661;45.700;4.880;2023-12-14T14:02:50;0.30;;;0.30;;
17091;SDS011;8661;45.700;4.880;2023-12-14T14:05:18;0.20;;;0.20;;
17091;SDS011;8661;45.700;4.880;2023-12-14T14:07:46;0.30;;;0.30;;
17091;SDS011;8661;45.700;4.880;2023-12-14T14:10:13;0.20;;;0.20;;
17091;SDS011;8661;45.700;4.880;2023-12-14T14:12:40;0.20;;;0.20;;
17091;SDS011;8661;45.700;4.880;2023-12-14T14:15:07;0.20;;;0.20;;
17091;SDS011;8661;45.700;4.880;2023-12-14T14:17:35;0.20;;;0.20;;
17091;SDS011;8661;45.700;4.880;2023-12-14T14:20:01;0.20;;;0.20;;
17091;SDS011;8661;45.700;4.880;2023-12-14T14:22:29;0.20;;;0.20;;
17091;SDS011;8661;45.700;4.880;2023-12-14T14:24:56;0.30;;;0.30;;
17091;SDS011;8661;45.700;4.880;2023-12-14T14:27:23;0.23;;;0.23;;
17091;SDS011;8661;45.700;4.880;2023-12-14T14:29:50;0.20;;;0.20;;
17091;SDS011;8661;45.700;4.880;2023-12-14T14:32:19;0.30;;;0.30;;
17091;SDS011;8661;45.700;4.880;2023-12-14T14:34:46;0.30;;;0.30;;
17091;SDS011;8661;45.700;4.880;2023-12-14T14:37:13;0.30;;;0.30;;
17091;SDS011;8661;45.700;4.880;2023-12-14T14:39:41;0.20;;;0.20;;
17091;SDS011;8661;45.700;4.880;2023-12-14T14:42:09;0.30;;;0.30;;
17091;SDS011;8661;45.700;4.880;2023-12-14T14:44:36;0.30;;;0.30;;
17091;SDS011;8661;45.700;4.880;2023-12-14T14:47:03;0.30;;;0.30;;
17091;SDS011;8661;45.700;4.880;2023-12-14T14:49:30;0.20;;;0.20;;
17091;SDS011;8661;45.700;4.880;2023-12-14T14:51:57;0.23;;;0.23;;
17091;SDS011;8661;45.700;4.880;2023-12-14T14:54:24;0.30;;;0.30;;
17091;SDS011;8661;45.700;4.880;2023-12-14T14:56:52;0.30;;;0.30;;
17091;SDS011;8661;45.700;4.880;2023-12-14T14:59:19;0.30;;;0.30;;
17091;SDS011;8661;45.700;4.880;2023-12-14T15:01:47;0.30;;;0.30;;
17091;SDS011;8661;45.700;4.880;2023-12-14T15:04:15;0.20;;;0.20;;
17091;SDS011;8661;45.700;4.880;2023-12-14T15:06:43;0.20;;;0.20;;